Home   Weather   45°38'N, 13°45'E   Past weeks
Flag for Italy

Past Weather in 45°38'N, 13°45'E, Italy — Yesterday and Last 2 Weeks

Currently: 65 °F. Mild. (Weather station: Trieste, Italy). See more current weather

Past Weather in 45°38'N, 13°45'E — Graph

°F

45°38'N, 13°45'E Temperature Yesterday

Maximum temperature yesterday: 75 °F (at 11:00 am)
Minimum temperature yesterday: 65 °F (at 6:00 am)
Average temperature yesterday: 69 °F

High & Low Weather Summary for the Past Weeks

 TemperatureHumidityPressure
High78 °F (May 26, 1:00 pm)97% (May 17, 4:00 am)30.10 "Hg (May 17, 4:00 am)
Low58 °F (May 17, 3:00 am)39% (May 26, 1:00 pm)29.64 "Hg (May 16, 7:00 pm)
Average67 °F72%29.92 "Hg
* Reported May 14 11:00 pm — May 29 11:00 pm, 45°38'N, 13°45'E. Weather by CustomWeather, © 2024

Note: Actual official high and low records may vary slightly from our data, if they occured in-between our weather recording intervals... More about our weather records

45°38'N, 13°45'E Weather History for the Previous 24 Hours

Scroll right to see more
 ConditionsComfort  
Time TempWeatherWind HumidityBarometerVisibility
11:00 pm
Wed, May 29
65 °FMild.5 mph80%29.87 "HgN/A
10:00 pm67 °FMild.N/A75%29.88 "HgN/A
9:00 pm69 °FMild.N/A68%29.87 "HgN/A
8:00 pm72 °FSunny.N/A68%29.87 "Hg12 mi
7:00 pm72 °FSunny.2 mph70%29.87 "Hg12 mi
6:00 pm72 °FSunny.5 mph70%29.88 "Hg12 mi
5:00 pm72 °FScattered clouds.5 mph68%29.88 "Hg12 mi
4:00 pm73 °FMild.N/A65%29.90 "HgN/A
3:00 pm74 °FMild.5 mph63%29.93 "HgN/A
2:00 pm73 °FScattered clouds.5 mph64%29.95 "Hg12 mi
12:00 pm73 °FPartly sunny.6 mph62%29.96 "Hg12 mi
11:00 am75 °FPartly sunny.5 mph49%29.97 "Hg12 mi
10:00 am72 °FSunny.8 mph56%29.98 "Hg12 mi
9:00 am70 °FSunny.9 mph60%29.99 "Hg12 mi
8:00 am67 °FSunny.8 mph65%29.99 "Hg12 mi
7:00 am65 °FMild.10 mph68%29.98 "HgN/A
6:00 am65 °FMild.10 mph67%29.98 "HgN/A
5:00 am65 °FMild.12 mph65%29.97 "HgN/A
4:00 am66 °FMild.12 mph64%29.97 "HgN/A
3:00 am67 °FMild.12 mph63%29.98 "HgN/A
2:00 am67 °FMild.12 mph62%29.99 "HgN/A
1:00 am67 °FMild.9 mph64%29.99 "HgN/A
12:00 am66 °FMild.14 mph66%29.99 "HgN/A
Weather by CustomWeather, © 2024

See weather overview